sensor_id;sensor_type;location;lat;lon;timestamp;P1;durP1;ratioP1;P2;durP2;ratioP2
76608;SDS011;65928;53.936;27.540;2024-02-21T00:02:24;5.32;;;3.38;;
76608;SDS011;65928;53.936;27.540;2024-02-21T00:04:49;13.07;;;6.75;;
76608;SDS011;65928;53.936;27.540;2024-02-21T00:07:15;6.43;;;3.92;;
76608;SDS011;65928;53.936;27.540;2024-02-21T00:09:40;11.43;;;6.18;;
76608;SDS011;65928;53.936;27.540;2024-02-21T00:12:06;10.20;;;6.05;;
76608;SDS011;65928;53.936;27.540;2024-02-21T00:14:31;12.02;;;7.60;;
76608;SDS011;65928;53.936;27.540;2024-02-21T00:16:57;12.68;;;6.15;;
76608;SDS011;65928;53.936;27.540;2024-02-21T00:19:22;14.55;;;8.43;;
76608;SDS011;65928;53.936;27.540;2024-02-21T00:21:47;7.65;;;4.78;;
76608;SDS011;65928;53.936;27.540;2024-02-21T00:24:13;7.53;;;4.75;;
76608;SDS011;65928;53.936;27.540;2024-02-21T00:26:38;9.52;;;6.10;;
76608;SDS011;65928;53.936;27.540;2024-02-21T00:29:04;8.55;;;5.13;;
76608;SDS011;65928;53.936;27.540;2024-02-21T00:31:30;8.95;;;5.97;;
76608;SDS011;65928;53.936;27.540;2024-02-21T00:33:55;9.85;;;6.25;;
76608;SDS011;65928;53.936;27.540;2024-02-21T00:36:21;14.73;;;8.60;;
76608;SDS011;65928;53.936;27.540;2024-02-21T00:38:46;8.10;;;5.35;;
76608;SDS011;65928;53.936;27.540;2024-02-21T00:41:11;12.93;;;7.57;;
76608;SDS011;65928;53.936;27.540;2024-02-21T00:43:37;11.10;;;5.45;;
76608;SDS011;65928;53.936;27.540;2024-02-21T00:46:02;11.95;;;7.22;;
76608;SDS011;65928;53.936;27.540;2024-02-21T00:48:28;7.95;;;6.07;;
76608;SDS011;65928;53.936;27.540;2024-02-21T00:50:53;10.50;;;6.45;;
76608;SDS011;65928;53.936;27.540;2024-02-21T00:53:18;19.10;;;10.23;;
76608;SDS011;65928;53.936;27.540;2024-02-21T00:55:44;16.30;;;9.32;;
76608;SDS011;65928;53.936;27.540;2024-02-21T00:58:09;12.15;;;7.75;;
76608;SDS011;65928;53.936;27.540;2024-02-21T01:00:34;14.98;;;8.90;;
76608;SDS011;65928;53.936;27.540;2024-02-21T01:03:00;14.27;;;7.85;;
76608;SDS011;65928;53.936;27.540;2024-02-21T01:05:25;13.07;;;7.28;;
76608;SDS011;65928;53.936;27.540;2024-02-21T01:07:52;16.88;;;10.23;;
76608;SDS011;65928;53.936;27.540;2024-02-21T01:10:17;10.73;;;5.95;;
76608;SDS011;65928;53.936;27.540;2024-02-21T01:12:43;12.52;;;7.45;;
76608;SDS011;65928;53.936;27.540;2024-02-21T01:15:08;9.32;;;6.15;;
76608;SDS011;65928;53.936;27.540;2024-02-21T01:17:34;17.80;;;8.43;;
76608;SDS011;65928;53.936;27.540;2024-02-21T01:19:59;14.43;;;8.75;;
76608;SDS011;65928;53.936;27.540;2024-02-21T01:22:24;8.52;;;5.78;;
76608;SDS011;65928;53.936;27.540;2024-02-21T01:24:50;7.55;;;5.05;;
76608;SDS011;65928;53.936;27.540;2024-02-21T01:27:15;12.38;;;8.10;;
76608;SDS011;65928;53.936;27.540;2024-02-21T01:29:41;12.00;;;7.80;;
76608;SDS011;65928;53.936;27.540;2024-02-21T01:32:06;17.55;;;10.55;;
76608;SDS011;65928;53.936;27.540;2024-02-21T01:34:32;10.95;;;7.55;;
76608;SDS011;65928;53.936;27.540;2024-02-21T01:36:57;13.95;;;8.05;;
76608;SDS011;65928;53.936;27.540;2024-02-21T01:39:24;10.57;;;7.90;;
76608;SDS011;65928;53.936;27.540;2024-02-21T01:41:49;9.55;;;5.75;;
76608;SDS011;65928;53.936;27.540;2024-02-21T01:44:14;8.02;;;3.90;;
76608;SDS011;65928;53.936;27.540;2024-02-21T01:46:40;14.18;;;9.38;;
76608;SDS011;65928;53.936;27.540;2024-02-21T01:49:05;10.23;;;6.57;;
76608;SDS011;65928;53.936;27.540;2024-02-21T01:51:31;11.00;;;7.25;;
76608;SDS011;65928;53.936;27.540;2024-02-21T01:53:56;12.63;;;8.73;;
76608;SDS011;65928;53.936;27.540;2024-02-21T01:56:23;20.77;;;10.55;;
76608;SDS011;65928;53.936;27.540;2024-02-21T01:58:48;11.93;;;8.23;;
76608;SDS011;65928;53.936;27.540;2024-02-21T02:01:14;12.70;;;7.32;;
76608;SDS011;65928;53.936;27.540;2024-02-21T02:03:40;15.23;;;7.80;;
76608;SDS011;65928;53.936;27.540;2024-02-21T02:06:05;10.55;;;6.80;;
76608;SDS011;65928;53.936;27.540;2024-02-21T02:08:31;16.30;;;10.52;;
76608;SDS011;65928;53.936;27.540;2024-02-21T02:10:57;21.35;;;12.20;;
76608;SDS011;65928;53.936;27.540;2024-02-21T02:13:22;18.98;;;10.75;;
76608;SDS011;65928;53.936;27.540;2024-02-21T02:15:48;10.38;;;6.00;;
76608;SDS011;65928;53.936;27.540;2024-02-21T02:18:14;14.73;;;9.38;;
76608;SDS011;65928;53.936;27.540;2024-02-21T02:20:40;19.05;;;10.70;;
76608;SDS011;65928;53.936;27.540;2024-02-21T02:25:39;15.88;;;8.90;;
76608;SDS011;65928;53.936;27.540;2024-02-21T02:28:05;21.38;;;12.05;;
76608;SDS011;65928;53.936;27.540;2024-02-21T02:30:34;18.23;;;10.55;;
76608;SDS011;65928;53.936;27.540;2024-02-21T02:33:01;19.60;;;11.43;;
76608;SDS011;65928;53.936;27.540;2024-02-21T02:35:27;17.50;;;11.55;;
76608;SDS011;65928;53.936;27.540;2024-02-21T02:37:52;18.55;;;11.13;;
76608;SDS011;65928;53.936;27.540;2024-02-21T02:40:18;17.92;;;10.70;;
76608;SDS011;65928;53.936;27.540;2024-02-21T02:42:43;21.27;;;11.90;;
76608;SDS011;65928;53.936;27.540;2024-02-21T02:45:09;19.60;;;11.52;;
76608;SDS011;65928;53.936;27.540;2024-02-21T02:47:34;23.08;;;11.55;;
76608;SDS011;65928;53.936;27.540;2024-02-21T02:50:00;20.17;;;11.95;;
76608;SDS011;65928;53.936;27.540;2024-02-21T02:52:26;20.02;;;12.55;;
76608;SDS011;65928;53.936;27.540;2024-02-21T02:54:51;23.75;;;13.25;;
76608;SDS011;65928;53.936;27.540;2024-02-21T02:57:18;17.80;;;10.85;;
76608;SDS011;65928;53.936;27.540;2024-02-21T02:59:49;20.60;;;11.20;;
76608;SDS011;65928;53.936;27.540;2024-02-21T03:02:15;21.65;;;12.07;;
76608;SDS011;65928;53.936;27.540;2024-02-21T03:04:41;18.92;;;12.15;;
76608;SDS011;65928;53.936;27.540;2024-02-21T03:07:06;19.70;;;12.52;;
76608;SDS011;65928;53.936;27.540;2024-02-21T03:09:32;20.90;;;11.30;;
76608;SDS011;65928;53.936;27.540;2024-02-21T03:11:57;16.55;;;11.43;;
76608;SDS011;65928;53.936;27.540;2024-02-21T03:14:27;17.13;;;10.90;;
76608;SDS011;65928;53.936;27.540;2024-02-21T03:16:53;18.25;;;11.68;;
76608;SDS011;65928;53.936;27.540;2024-02-21T03:19:19;22.05;;;11.63;;
76608;SDS011;65928;53.936;27.540;2024-02-21T03:21:44;11.00;;;7.22;;
76608;SDS011;65928;53.936;27.540;2024-02-21T03:24:09;17.98;;;10.02;;
76608;SDS011;65928;53.936;27.540;2024-02-21T03:26:35;15.00;;;9.00;;
76608;SDS011;65928;53.936;27.540;2024-02-21T03:29:00;20.33;;;11.32;;
76608;SDS011;65928;53.936;27.540;2024-02-21T03:31:25;11.38;;;7.15;;
76608;SDS011;65928;53.936;27.540;2024-02-21T03:33:51;11.77;;;7.35;;
76608;SDS011;65928;53.936;27.540;2024-02-21T03:36:16;12.18;;;9.60;;
76608;SDS011;65928;53.936;27.540;2024-02-21T03:38:41;18.98;;;10.82;;
76608;SDS011;65928;53.936;27.540;2024-02-21T03:41:07;11.63;;;6.43;;
76608;SDS011;65928;53.936;27.540;2024-02-21T03:43:32;11.70;;;7.32;;
76608;SDS011;65928;53.936;27.540;2024-02-21T03:45:57;16.73;;;9.63;;
76608;SDS011;65928;53.936;27.540;2024-02-21T03:48:23;16.27;;;8.00;;
76608;SDS011;65928;53.936;27.540;2024-02-21T03:50:48;13.30;;;7.03;;
76608;SDS011;65928;53.936;27.540;2024-02-21T03:53:13;21.13;;;11.43;;
76608;SDS011;65928;53.936;27.540;2024-02-21T03:55:39;17.08;;;9.38;;
76608;SDS011;65928;53.936;27.540;2024-02-21T03:58:04;17.15;;;8.52;;
76608;SDS011;65928;53.936;27.540;2024-02-21T04:00:29;13.65;;;7.50;;
76608;SDS011;65928;53.936;27.540;2024-02-21T04:02:55;20.13;;;11.45;;
76608;SDS011;65928;53.936;27.540;2024-02-21T04:05:20;19.52;;;9.57;;
76608;SDS011;65928;53.936;27.540;2024-02-21T04:07:46;19.08;;;9.88;;
76608;SDS011;65928;53.936;27.540;2024-02-21T04:10:11;18.90;;;8.32;;
76608;SDS011;65928;53.936;27.540;2024-02-21T04:12:37;15.43;;;9.50;;
76608;SDS011;65928;53.936;27.540;2024-02-21T04:15:03;22.02;;;13.10;;
76608;SDS011;65928;53.936;27.540;2024-02-21T04:17:29;22.52;;;12.77;;
76608;SDS011;65928;53.936;27.540;2024-02-21T04:20:00;23.33;;;11.15;;
76608;SDS011;65928;53.936;27.540;2024-02-21T04:22:30;21.65;;;13.05;;
76608;SDS011;65928;53.936;27.540;2024-02-21T04:24:55;21.33;;;12.88;;
76608;SDS011;65928;53.936;27.540;2024-02-21T04:27:20;24.77;;;14.23;;
76608;SDS011;65928;53.936;27.540;2024-02-21T04:29:46;23.35;;;12.80;;
76608;SDS011;65928;53.936;27.540;2024-02-21T04:32:11;23.17;;;13.18;;
76608;SDS011;65928;53.936;27.540;2024-02-21T04:34:36;28.10;;;15.25;;
76608;SDS011;65928;53.936;27.540;2024-02-21T04:37:02;27.15;;;15.07;;
76608;SDS011;65928;53.936;27.540;2024-02-21T04:39:27;32.15;;;16.58;;
76608;SDS011;65928;53.936;27.540;2024-02-21T04:41:53;31.88;;;17.35;;
76608;SDS011;65928;53.936;27.540;2024-02-21T04:44:18;30.10;;;14.68;;
76608;SDS011;65928;53.936;27.540;2024-02-21T04:46:46;23.73;;;12.63;;
76608;SDS011;65928;53.936;27.540;2024-02-21T04:49:13;23.92;;;12.82;;
76608;SDS011;65928;53.936;27.540;2024-02-21T04:51:39;27.10;;;13.02;;
76608;SDS011;65928;53.936;27.540;2024-02-21T04:54:05;30.88;;;16.35;;
76608;SDS011;65928;53.936;27.540;2024-02-21T04:56:31;30.02;;;15.25;;
76608;SDS011;65928;53.936;27.540;2024-02-21T04:58:56;29.60;;;16.63;;
76608;SDS011;65928;53.936;27.540;2024-02-21T05:01:22;21.67;;;12.25;;
76608;SDS011;65928;53.936;27.540;2024-02-21T05:03:47;32.70;;;19.70;;
76608;SDS011;65928;53.936;27.540;2024-02-21T05:06:12;21.52;;;12.20;;
76608;SDS011;65928;53.936;27.540;2024-02-21T05:08:38;15.57;;;9.38;;
76608;SDS011;65928;53.936;27.540;2024-02-21T05:11:03;25.27;;;13.52;;
76608;SDS011;65928;53.936;27.540;2024-02-21T05:13:28;24.95;;;12.02;;
76608;SDS011;65928;53.936;27.540;2024-02-21T05:15:54;19.65;;;9.48;;
76608;SDS011;65928;53.936;27.540;2024-02-21T05:18:19;25.13;;;13.35;;
76608;SDS011;65928;53.936;27.540;2024-02-21T05:20:45;18.75;;;10.23;;
76608;SDS011;65928;53.936;27.540;2024-02-21T05:23:11;26.25;;;13.55;;
76608;SDS011;65928;53.936;27.540;2024-02-21T05:25:37;25.08;;;13.13;;
76608;SDS011;65928;53.936;27.540;2024-02-21T05:28:02;28.35;;;14.27;;
76608;SDS011;65928;53.936;27.540;2024-02-21T05:30:28;28.65;;;13.85;;
76608;SDS011;65928;53.936;27.540;2024-02-21T05:32:54;16.58;;;7.60;;
76608;SDS011;65928;53.936;27.540;2024-02-21T05:35:24;20.65;;;10.13;;
76608;SDS011;65928;53.936;27.540;2024-02-21T05:37:50;20.30;;;12.40;;
76608;SDS011;65928;53.936;27.540;2024-02-21T05:40:17;17.85;;;11.15;;
76608;SDS011;65928;53.936;27.540;2024-02-21T05:42:43;22.17;;;12.13;;
76608;SDS011;65928;53.936;27.540;2024-02-21T05:45:08;13.93;;;7.97;;
76608;SDS011;65928;53.936;27.540;2024-02-21T05:47:34;13.15;;;8.15;;
76608;SDS011;65928;53.936;27.540;2024-02-21T05:49:59;16.13;;;10.45;;
76608;SDS011;65928;53.936;27.540;2024-02-21T05:52:25;14.75;;;8.85;;
76608;SDS011;65928;53.936;27.540;2024-02-21T05:54:50;17.52;;;7.82;;
76608;SDS011;65928;53.936;27.540;2024-02-21T05:57:16;24.88;;;12.02;;
76608;SDS011;65928;53.936;27.540;2024-02-21T05:59:43;25.75;;;14.23;;
76608;SDS011;65928;53.936;27.540;2024-02-21T06:02:08;24.88;;;18.48;;
76608;SDS011;65928;53.936;27.540;2024-02-21T06:04:34;9.80;;;6.22;;
76608;SDS011;65928;53.936;27.540;2024-02-21T06:07:00;11.48;;;6.60;;
76608;SDS011;65928;53.936;27.540;2024-02-21T06:09:26;20.38;;;11.43;;
76608;SDS011;65928;53.936;27.540;2024-02-21T06:11:51;23.85;;;11.98;;
76608;SDS011;65928;53.936;27.540;2024-02-21T06:14:17;17.50;;;9.52;;
76608;SDS011;65928;53.936;27.540;2024-02-21T06:16:43;13.25;;;7.95;;
76608;SDS011;65928;53.936;27.540;2024-02-21T06:19:09;18.77;;;10.10;;
76608;SDS011;65928;53.936;27.540;2024-02-21T06:21:34;22.13;;;11.65;;
76608;SDS011;65928;53.936;27.540;2024-02-21T06:24:00;20.83;;;9.52;;
76608;SDS011;65928;53.936;27.540;2024-02-21T06:26:25;23.17;;;12.38;;
76608;SDS011;65928;53.936;27.540;2024-02-21T06:28:51;14.20;;;6.30;;
76608;SDS011;65928;53.936;27.540;2024-02-21T06:31:16;9.07;;;6.45;;
76608;SDS011;65928;53.936;27.540;2024-02-21T06:33:42;18.42;;;9.38;;
76608;SDS011;65928;53.936;27.540;2024-02-21T06:36:08;12.02;;;6.18;;
76608;SDS011;65928;53.936;27.540;2024-02-21T06:38:33;16.45;;;8.60;;
76608;SDS011;65928;53.936;27.540;2024-02-21T06:40:59;15.55;;;8.50;;
76608;SDS011;65928;53.936;27.540;2024-02-21T06:43:25;16.08;;;9.02;;
76608;SDS011;65928;53.936;27.540;2024-02-21T06:45:51;23.02;;;9.38;;
76608;SDS011;65928;53.936;27.540;2024-02-21T06:48:16;15.50;;;9.68;;
76608;SDS011;65928;53.936;27.540;2024-02-21T06:50:43;17.00;;;9.38;;
76608;SDS011;65928;53.936;27.540;2024-02-21T06:53:08;10.30;;;5.93;;
76608;SDS011;65928;53.936;27.540;2024-02-21T06:55:33;19.50;;;9.95;;
76608;SDS011;65928;53.936;27.540;2024-02-21T06:57:59;16.00;;;8.10;;
76608;SDS011;65928;53.936;27.540;2024-02-21T07:00:24;19.23;;;10.60;;
76608;SDS011;65928;53.936;27.540;2024-02-21T07:02:50;14.45;;;8.85;;
76608;SDS011;65928;53.936;27.540;2024-02-21T07:05:16;15.43;;;8.32;;
76608;SDS011;65928;53.936;27.540;2024-02-21T07:07:41;16.23;;;9.40;;
76608;SDS011;65928;53.936;27.540;2024-02-21T07:10:06;21.98;;;11.45;;
76608;SDS011;65928;53.936;27.540;2024-02-21T07:12:32;12.63;;;7.85;;
76608;SDS011;65928;53.936;27.540;2024-02-21T07:14:58;22.20;;;10.02;;
76608;SDS011;65928;53.936;27.540;2024-02-21T07:17:23;17.02;;;10.02;;
76608;SDS011;65928;53.936;27.540;2024-02-21T07:19:49;17.27;;;10.52;;
76608;SDS011;65928;53.936;27.540;2024-02-21T07:22:14;17.13;;;9.35;;
76608;SDS011;65928;53.936;27.540;2024-02-21T07:24:40;18.63;;;9.07;;
76608;SDS011;65928;53.936;27.540;2024-02-21T07:27:05;15.55;;;10.15;;
76608;SDS011;65928;53.936;27.540;2024-02-21T07:29:30;17.10;;;9.90;;
76608;SDS011;65928;53.936;27.540;2024-02-21T07:31:56;16.48;;;9.90;;
76608;SDS011;65928;53.936;27.540;2024-02-21T07:34:21;11.00;;;6.97;;
76608;SDS011;65928;53.936;27.540;2024-02-21T07:36:47;13.65;;;8.02;;
76608;SDS011;65928;53.936;27.540;2024-02-21T07:39:12;14.95;;;9.65;;
76608;SDS011;65928;53.936;27.540;2024-02-21T07:41:37;19.95;;;11.48;;
76608;SDS011;65928;53.936;27.540;2024-02-21T07:44:04;23.23;;;14.98;;
76608;SDS011;65928;53.936;27.540;2024-02-21T07:46:30;15.25;;;8.43;;
76608;SDS011;65928;53.936;27.540;2024-02-21T07:48:55;16.00;;;10.38;;
76608;SDS011;65928;53.936;27.540;2024-02-21T07:51:21;11.70;;;5.18;;
76608;SDS011;65928;53.936;27.540;2024-02-21T07:53:46;17.33;;;10.23;;
76608;SDS011;65928;53.936;27.540;2024-02-21T07:56:12;10.13;;;6.55;;
76608;SDS011;65928;53.936;27.540;2024-02-21T07:58:39;15.45;;;10.45;;
76608;SDS011;65928;53.936;27.540;2024-02-21T08:01:04;14.48;;;9.63;;
76608;SDS011;65928;53.936;27.540;2024-02-21T08:03:30;14.60;;;9.32;;
76608;SDS011;65928;53.936;27.540;2024-02-21T08:05:55;16.17;;;9.55;;
76608;SDS011;65928;53.936;27.540;2024-02-21T08:08:21;15.40;;;9.02;;
76608;SDS011;65928;53.936;27.540;2024-02-21T08:10:47;13.85;;;6.82;;
76608;SDS011;65928;53.936;27.540;2024-02-21T08:13:13;17.13;;;9.25;;
76608;SDS011;65928;53.936;27.540;2024-02-21T08:15:39;12.85;;;8.02;;
76608;SDS011;65928;53.936;27.540;2024-02-21T08:18:07;14.65;;;8.55;;
76608;SDS011;65928;53.936;27.540;2024-02-21T08:20:32;17.20;;;8.98;;
76608;SDS011;65928;53.936;27.540;2024-02-21T08:22:58;15.18;;;9.20;;
76608;SDS011;65928;53.936;27.540;2024-02-21T08:25:23;12.35;;;7.35;;
76608;SDS011;65928;53.936;27.540;2024-02-21T08:27:48;14.75;;;8.98;;
76608;SDS011;65928;53.936;27.540;2024-02-21T08:30:14;13.15;;;8.05;;
76608;SDS011;65928;53.936;27.540;2024-02-21T08:32:39;11.88;;;6.30;;
76608;SDS011;65928;53.936;27.540;2024-02-21T08:35:05;12.00;;;7.32;;
76608;SDS011;65928;53.936;27.540;2024-02-21T08:37:31;12.50;;;8.50;;
76608;SDS011;65928;53.936;27.540;2024-02-21T08:39:56;13.75;;;8.75;;
76608;SDS011;65928;53.936;27.540;2024-02-21T08:42:22;36.00;;;19.67;;
76608;SDS011;65928;53.936;27.540;2024-02-21T08:44:47;16.63;;;9.95;;
76608;SDS011;65928;53.936;27.540;2024-02-21T08:47:12;13.68;;;8.55;;
76608;SDS011;65928;53.936;27.540;2024-02-21T08:49:38;13.88;;;8.77;;
76608;SDS011;65928;53.936;27.540;2024-02-21T08:52:03;13.45;;;8.15;;
76608;SDS011;65928;53.936;27.540;2024-02-21T08:54:30;7.50;;;5.63;;
76608;SDS011;65928;53.936;27.540;2024-02-21T08:56:56;18.35;;;9.73;;
76608;SDS011;65928;53.936;27.540;2024-02-21T08:59:21;11.18;;;6.55;;
76608;SDS011;65928;53.936;27.540;2024-02-21T09:01:47;7.78;;;4.90;;
76608;SDS011;65928;53.936;27.540;2024-02-21T09:04:12;13.90;;;7.85;;
76608;SDS011;65928;53.936;27.540;2024-02-21T09:06:37;15.02;;;7.72;;
76608;SDS011;65928;53.936;27.540;2024-02-21T09:09:07;11.20;;;7.10;;
76608;SDS011;65928;53.936;27.540;2024-02-21T09:11:35;13.75;;;8.50;;
76608;SDS011;65928;53.936;27.540;2024-02-21T09:14:00;11.60;;;5.32;;
76608;SDS011;65928;53.936;27.540;2024-02-21T09:16:26;14.45;;;9.15;;
76608;SDS011;65928;53.936;27.540;2024-02-21T09:18:51;12.73;;;7.25;;
76608;SDS011;65928;53.936;27.540;2024-02-21T09:21:17;14.07;;;9.07;;
76608;SDS011;65928;53.936;27.540;2024-02-21T09:23:43;14.75;;;9.13;;
76608;SDS011;65928;53.936;27.540;2024-02-21T09:26:09;15.60;;;9.32;;
76608;SDS011;65928;53.936;27.540;2024-02-21T09:28:38;15.27;;;9.02;;
76608;SDS011;65928;53.936;27.540;2024-02-21T09:31:04;11.40;;;7.53;;
76608;SDS011;65928;53.936;27.540;2024-02-21T09:33:29;15.07;;;8.85;;
76608;SDS011;65928;53.936;27.540;2024-02-21T09:35:55;14.70;;;8.45;;
76608;SDS011;65928;53.936;27.540;2024-02-21T09:38:20;13.40;;;8.52;;
76608;SDS011;65928;53.936;27.540;2024-02-21T09:40:46;8.60;;;5.60;;
76608;SDS011;65928;53.936;27.540;2024-02-21T09:43:12;13.13;;;8.25;;
76608;SDS011;65928;53.936;27.540;2024-02-21T09:45:42;15.48;;;9.15;;
76608;SDS011;65928;53.936;27.540;2024-02-21T09:50:56;17.27;;;9.88;;
76608;SDS011;65928;53.936;27.540;2024-02-21T09:53:23;12.80;;;8.52;;
76608;SDS011;65928;53.936;27.540;2024-02-21T09:55:49;10.07;;;5.68;;
76608;SDS011;65928;53.936;27.540;2024-02-21T09:58:15;16.08;;;9.90;;
76608;SDS011;65928;53.936;27.540;2024-02-21T10:00:40;13.40;;;5.85;;
76608;SDS011;65928;53.936;27.540;2024-02-21T10:03:06;17.67;;;10.38;;
76608;SDS011;65928;53.936;27.540;2024-02-21T10:05:34;15.73;;;9.55;;
76608;SDS011;65928;53.936;27.540;2024-02-21T10:08:00;16.52;;;10.43;;
76608;SDS011;65928;53.936;27.540;2024-02-21T10:10:26;15.30;;;9.63;;
76608;SDS011;65928;53.936;27.540;2024-02-21T10:12:52;16.20;;;9.45;;
76608;SDS011;65928;53.936;27.540;2024-02-21T10:15:21;14.10;;;8.95;;
76608;SDS011;65928;53.936;27.540;2024-02-21T10:17:59;16.23;;;9.55;;
76608;SDS011;65928;53.936;27.540;2024-02-21T10:20:26;14.00;;;8.18;;
76608;SDS011;65928;53.936;27.540;2024-02-21T10:23:01;15.38;;;10.27;;
76608;SDS011;65928;53.936;27.540;2024-02-21T10:25:33;15.70;;;10.30;;
76608;SDS011;65928;53.936;27.540;2024-02-21T10:28:00;15.05;;;10.50;;
76608;SDS011;65928;53.936;27.540;2024-02-21T10:30:25;15.88;;;10.43;;
76608;SDS011;65928;53.936;27.540;2024-02-21T10:32:51;17.85;;;9.65;;
76608;SDS011;65928;53.936;27.540;2024-02-21T10:35:30;16.65;;;10.10;;
76608;SDS011;65928;53.936;27.540;2024-02-21T10:37:57;13.73;;;9.20;;
76608;SDS011;65928;53.936;27.540;2024-02-21T10:40:23;10.43;;;5.35;;
76608;SDS011;65928;53.936;27.540;2024-02-21T10:48:16;13.90;;;9.57;;
76608;SDS011;65928;53.936;27.540;2024-02-21T10:50:57;13.68;;;9.77;;
76608;SDS011;65928;53.936;27.540;2024-02-21T10:58:47;15.60;;;8.20;;
76608;SDS011;65928;53.936;27.540;2024-02-21T11:01:13;9.70;;;5.40;;
76608;SDS011;65928;53.936;27.540;2024-02-21T11:03:40;12.52;;;8.18;;
76608;SDS011;65928;53.936;27.540;2024-02-21T11:06:07;11.27;;;6.78;;
76608;SDS011;65928;53.936;27.540;2024-02-21T11:08:33;14.65;;;9.20;;
76608;SDS011;65928;53.936;27.540;2024-02-21T11:10:59;13.60;;;8.10;;
76608;SDS011;65928;53.936;27.540;2024-02-21T11:13:32;14.13;;;9.40;;
76608;SDS011;65928;53.936;27.540;2024-02-21T11:16:07;14.55;;;8.68;;
76608;SDS011;65928;53.936;27.540;2024-02-21T11:18:34;11.20;;;5.72;;
76608;SDS011;65928;53.936;27.540;2024-02-21T11:21:00;12.38;;;7.80;;
76608;SDS011;65928;53.936;27.540;2024-02-21T11:23:26;10.18;;;5.60;;
76608;SDS011;65928;53.936;27.540;2024-02-21T11:25:51;11.40;;;6.40;;
76608;SDS011;65928;53.936;27.540;2024-02-21T11:28:17;11.48;;;6.95;;
76608;SDS011;65928;53.936;27.540;2024-02-21T11:30:50;15.00;;;7.63;;
76608;SDS011;65928;53.936;27.540;2024-02-21T11:33:16;12.23;;;7.32;;
76608;SDS011;65928;53.936;27.540;2024-02-21T11:35:41;13.18;;;6.53;;
76608;SDS011;65928;53.936;27.540;2024-02-21T11:38:10;10.98;;;7.05;;
76608;SDS011;65928;53.936;27.540;2024-02-21T11:40:39;12.18;;;6.57;;
76608;SDS011;65928;53.936;27.540;2024-02-21T11:43:06;12.27;;;6.68;;
76608;SDS011;65928;53.936;27.540;2024-02-21T11:45:32;16.08;;;8.07;;
76608;SDS011;65928;53.936;27.540;2024-02-21T11:48:00;17.20;;;9.38;;
76608;SDS011;65928;53.936;27.540;2024-02-21T11:50:28;14.55;;;8.13;;
76608;SDS011;65928;53.936;27.540;2024-02-21T11:52:54;17.98;;;9.27;;
76608;SDS011;65928;53.936;27.540;2024-02-21T11:55:20;9.32;;;5.75;;
76608;SDS011;65928;53.936;27.540;2024-02-21T11:57:47;16.80;;;8.98;;
76608;SDS011;65928;53.936;27.540;2024-02-21T12:00:13;12.10;;;7.70;;
76608;SDS011;65928;53.936;27.540;2024-02-21T12:02:43;14.07;;;7.15;;
76608;SDS011;65928;53.936;27.540;2024-02-21T12:05:10;9.55;;;5.53;;
76608;SDS011;65928;53.936;27.540;2024-02-21T12:07:36;12.00;;;6.40;;
76608;SDS011;65928;53.936;27.540;2024-02-21T12:10:06;14.85;;;7.20;;
76608;SDS011;65928;53.936;27.540;2024-02-21T12:12:35;12.00;;;7.47;;
76608;SDS011;65928;53.936;27.540;2024-02-21T12:15:02;14.98;;;7.95;;
76608;SDS011;65928;53.936;27.540;2024-02-21T12:17:33;13.98;;;7.60;;
76608;SDS011;65928;53.936;27.540;2024-02-21T12:20:02;18.45;;;8.02;;
76608;SDS011;65928;53.936;27.540;2024-02-21T12:22:35;11.30;;;6.75;;
76608;SDS011;65928;53.936;27.540;2024-02-21T12:25:02;12.27;;;6.13;;
76608;SDS011;65928;53.936;27.540;2024-02-21T12:27:29;10.15;;;6.40;;
76608;SDS011;65928;53.936;27.540;2024-02-21T12:29:55;10.73;;;6.10;;
76608;SDS011;65928;53.936;27.540;2024-02-21T12:32:20;10.45;;;6.20;;
76608;SDS011;65928;53.936;27.540;2024-02-21T12:34:45;10.38;;;5.90;;
76608;SDS011;65928;53.936;27.540;2024-02-21T12:37:11;11.90;;;6.85;;
76608;SDS011;65928;53.936;27.540;2024-02-21T12:39:40;11.93;;;7.13;;
76608;SDS011;65928;53.936;27.540;2024-02-21T12:42:06;10.75;;;5.70;;
76608;SDS011;65928;53.936;27.540;2024-02-21T12:44:31;9.95;;;6.32;;
76608;SDS011;65928;53.936;27.540;2024-02-21T12:46:57;9.23;;;6.28;;
76608;SDS011;65928;53.936;27.540;2024-02-21T12:49:22;10.77;;;6.18;;
76608;SDS011;65928;53.936;27.540;2024-02-21T12:51:49;10.10;;;6.00;;
76608;SDS011;65928;53.936;27.540;2024-02-21T12:54:14;9.40;;;5.82;;
76608;SDS011;65928;53.936;27.540;2024-02-21T12:56:39;8.57;;;4.55;;
76608;SDS011;65928;53.936;27.540;2024-02-21T12:59:05;10.32;;;5.63;;
76608;SDS011;65928;53.936;27.540;2024-02-21T13:01:34;9.20;;;5.00;;
76608;SDS011;65928;53.936;27.540;2024-02-21T13:04:00;7.50;;;3.97;;
76608;SDS011;65928;53.936;27.540;2024-02-21T13:06:26;8.85;;;5.68;;
76608;SDS011;65928;53.936;27.540;2024-02-21T13:08:52;9.38;;;5.78;;
76608;SDS011;65928;53.936;27.540;2024-02-21T13:11:17;10.85;;;5.25;;
76608;SDS011;65928;53.936;27.540;2024-02-21T13:13:42;12.88;;;6.32;;
76608;SDS011;65928;53.936;27.540;2024-02-21T13:16:08;8.63;;;4.70;;
76608;SDS011;65928;53.936;27.540;2024-02-21T13:18:34;10.38;;;5.90;;
76608;SDS011;65928;53.936;27.540;2024-02-21T13:21:02;9.95;;;6.30;;
76608;SDS011;65928;53.936;27.540;2024-02-21T13:23:29;12.13;;;5.78;;
76608;SDS011;65928;53.936;27.540;2024-02-21T13:25:54;9.93;;;6.10;;
76608;SDS011;65928;53.936;27.540;2024-02-21T13:28:19;10.70;;;6.18;;
76608;SDS011;65928;53.936;27.540;2024-02-21T13:30:45;11.35;;;6.50;;
76608;SDS011;65928;53.936;27.540;2024-02-21T13:33:10;10.05;;;5.43;;
76608;SDS011;65928;53.936;27.540;2024-02-21T13:35:35;8.88;;;5.70;;
76608;SDS011;65928;53.936;27.540;2024-02-21T13:38:01;10.02;;;5.15;;
76608;SDS011;65928;53.936;27.540;2024-02-21T13:40:27;11.60;;;6.25;;
76608;SDS011;65928;53.936;27.540;2024-02-21T13:42:53;10.90;;;5.72;;
76608;SDS011;65928;53.936;27.540;2024-02-21T13:45:19;9.43;;;6.05;;
76608;SDS011;65928;53.936;27.540;2024-02-21T13:47:44;11.40;;;5.93;;
76608;SDS011;65928;53.936;27.540;2024-02-21T13:50:10;9.73;;;5.95;;
76608;SDS011;65928;53.936;27.540;2024-02-21T13:52:36;9.85;;;6.18;;
76608;SDS011;65928;53.936;27.540;2024-02-21T13:55:02;5.13;;;2.83;;
76608;SDS011;65928;53.936;27.540;2024-02-21T13:57:28;9.27;;;5.00;;
76608;SDS011;65928;53.936;27.540;2024-02-21T13:59:53;9.35;;;5.05;;
76608;SDS011;65928;53.936;27.540;2024-02-21T14:02:19;11.13;;;4.95;;
76608;SDS011;65928;53.936;27.540;2024-02-21T14:04:44;10.15;;;6.00;;
76608;SDS011;65928;53.936;27.540;2024-02-21T14:07:09;11.88;;;6.18;;
76608;SDS011;65928;53.936;27.540;2024-02-21T14:09:35;10.73;;;5.40;;
76608;SDS011;65928;53.936;27.540;2024-02-21T14:12:00;11.50;;;6.38;;
76608;SDS011;65928;53.936;27.540;2024-02-21T14:14:25;10.57;;;6.18;;
76608;SDS011;65928;53.936;27.540;2024-02-21T14:16:51;10.40;;;6.03;;
76608;SDS011;65928;53.936;27.540;2024-02-21T14:19:16;10.35;;;6.53;;
76608;SDS011;65928;53.936;27.540;2024-02-21T14:21:43;10.77;;;7.10;;
76608;SDS011;65928;53.936;27.540;2024-02-21T14:24:09;13.30;;;6.57;;
76608;SDS011;65928;53.936;27.540;2024-02-21T14:26:35;10.90;;;6.43;;
76608;SDS011;65928;53.936;27.540;2024-02-21T14:29:00;10.43;;;6.72;;